createdAt,value
2022-08-22T00:01:54.732Z,100828.91
2022-08-22T00:02:45.526Z,100900.44
2022-08-22T00:04:33.343Z,100833.97
2022-08-22T00:07:14.067Z,100817.06
2022-08-22T00:09:55.391Z,100814.69
2022-08-22T00:12:29.621Z,100814.56
2022-08-22T00:15:03.244Z,100805.53
2022-08-22T00:17:42.176Z,100796.53
2022-08-22T00:20:17.483Z,100799.66
2022-08-22T00:22:52.987Z,100797.75
2022-08-22T00:25:57.460Z,100797.03
2022-08-22T00:28:31.130Z,100805.03
2022-08-22T00:31:15.786Z,100805.34
2022-08-22T00:33:49.881Z,100807.31
2022-08-22T00:36:27.680Z,100801.69
2022-08-22T00:39:05.347Z,100798.59
2022-08-22T00:41:50.767Z,100793.09
2022-08-22T00:44:52.069Z,100791.59
2022-08-22T00:47:36.869Z,100791.72
2022-08-22T00:50:24.513Z,100798.88
2022-08-22T00:53:10.548Z,100799.72
2022-08-22T00:55:55.320Z,100800.47
2022-08-22T00:58:55.537Z,100798.34
2022-08-22T01:01:31.638Z,100801.44
2022-08-22T01:04:26.128Z,100787.16
2022-08-22T01:07:10.274Z,100798.66
2022-08-22T01:09:55.770Z,100799.16
2022-08-22T01:12:53.143Z,100795.88
2022-08-22T01:15:27.657Z,100798.00
2022-08-22T01:18:17.937Z,100792.22
2022-08-22T01:21:24.385Z,100779.69
2022-08-22T01:24:29.581Z,100769.25
2022-08-22T01:27:47.709Z,100774.09
2022-08-22T01:31:00.835Z,100766.38
2022-08-22T01:34:13.057Z,100764.81
2022-08-22T01:36:57.173Z,100757.72
2022-08-22T01:39:54.171Z,100764.91
2022-08-22T01:42:54.150Z,100766.47
2022-08-22T01:45:43.795Z,100755.38
2022-08-22T01:48:18.438Z,100757.75
2022-08-22T01:50:54.877Z,100755.94
2022-08-22T01:53:31.727Z,100757.03
2022-08-22T01:56:07.949Z,100757.81
2022-08-22T01:58:40.440Z,100746.25
2022-08-22T02:01:26.970Z,100737.56
2022-08-22T02:04:06.016Z,100738.84
2022-08-22T02:06:46.820Z,100741.91
2022-08-22T02:09:28.000Z,100739.69
2022-08-22T02:11:58.188Z,100735.75
2022-08-22T02:14:41.988Z,100739.56
2022-08-22T02:17:18.982Z,100733.63
2022-08-22T02:19:56.901Z,100728.28
2022-08-22T02:22:38.061Z,100729.53
2022-08-22T02:25:18.979Z,100729.66
2022-08-22T02:27:58.465Z,100724.34
2022-08-22T02:30:43.100Z,100718.94
2022-08-22T02:33:17.988Z,100714.78
2022-08-22T02:35:53.361Z,100715.16
2022-08-22T02:38:29.579Z,100709.66
2022-08-22T02:41:10.096Z,100709.22
2022-08-22T02:43:49.619Z,100703.34
2022-08-22T02:46:28.264Z,100708.06
2022-08-22T02:49:05.807Z,100710.75
2022-08-22T02:51:44.861Z,100707.16
2022-08-22T02:54:23.823Z,100702.88
2022-08-22T02:56:59.127Z,100706.25
2022-08-22T02:59:35.113Z,100699.75
2022-08-22T03:02:31.054Z,100700.00
2022-08-22T03:05:02.133Z,100690.94
2022-08-22T03:07:42.577Z,100691.78
2022-08-22T03:10:19.901Z,100691.69
2022-08-22T03:13:00.294Z,100689.72
2022-08-22T03:15:38.268Z,100689.25
2022-08-22T03:18:19.821Z,100679.97
2022-08-22T03:20:54.588Z,100676.00
2022-08-22T03:23:33.233Z,100664.09
2022-08-22T03:26:13.875Z,100656.94
2022-08-22T03:28:52.728Z,100658.09
2022-08-22T03:31:31.224Z,100658.63
2022-08-22T03:34:22.582Z,100647.97
2022-08-22T03:37:09.085Z,100654.66
2022-08-22T03:39:49.490Z,100663.78
2022-08-22T03:42:37.456Z,100667.28
2022-08-22T03:45:38.714Z,100660.13
2022-08-22T03:48:40.464Z,100663.69
2022-08-22T03:51:32.597Z,100660.88
2022-08-22T03:54:52.943Z,100662.69
2022-08-22T03:57:54.897Z,100651.44
2022-08-22T04:01:15.105Z,100641.72
2022-08-22T04:04:31.898Z,100636.56
2022-08-22T04:07:32.169Z,100631.06
2022-08-22T04:10:31.934Z,100621.25
2022-08-22T04:13:25.387Z,100613.22
2022-08-22T04:16:38.808Z,100611.38
2022-08-22T04:19:25.952Z,100615.50
2022-08-22T04:22:22.367Z,100618.47
2022-08-22T04:24:56.642Z,100616.00
2022-08-22T04:27:31.952Z,100612.88
2022-08-22T04:30:23.765Z,100604.84
2022-08-22T04:33:00.595Z,100607.81
2022-08-22T04:35:33.181Z,100602.78
2022-08-22T04:38:09.748Z,100602.78
2022-08-22T04:40:45.030Z,100604.63
2022-08-22T04:43:21.458Z,100603.16
2022-08-22T04:45:58.032Z,100598.22
2022-08-22T04:48:34.239Z,100597.75
2022-08-22T04:51:08.270Z,100599.41
2022-08-22T04:53:57.188Z,100594.53
2022-08-22T04:56:34.808Z,100593.19
2022-08-22T04:59:09.844Z,100601.84
2022-08-22T05:01:46.857Z,100597.88
2022-08-22T05:04:20.116Z,100589.53
2022-08-22T05:06:52.591Z,100587.53
2022-08-22T05:09:27.927Z,100600.53
2022-08-22T05:12:03.340Z,100592.34
2022-08-22T05:14:38.695Z,100594.53
2022-08-22T05:17:15.593Z,100595.06
2022-08-22T05:19:50.979Z,100587.38
2022-08-22T05:22:23.020Z,100580.88
2022-08-22T05:24:56.270Z,100586.75
2022-08-22T05:27:27.447Z,100576.06
2022-08-22T05:30:02.690Z,100575.47
2022-08-22T05:32:41.612Z,100562.75
2022-08-22T05:35:11.584Z,100564.75
2022-08-22T05:37:46.037Z,100556.88
2022-08-22T05:40:20.136Z,100560.56
2022-08-22T05:42:48.988Z,100561.13
2022-08-22T05:45:20.423Z,100561.97
2022-08-22T05:47:54.736Z,100559.28
2022-08-22T05:50:29.901Z,100566.63
2022-08-22T05:53:06.630Z,100566.16
2022-08-22T05:55:46.708Z,100566.59
2022-08-22T05:58:32.080Z,100559.59
2022-08-22T06:01:10.486Z,100558.59
2022-08-22T06:03:47.625Z,100550.09
2022-08-22T06:06:20.144Z,100552.28
2022-08-22T06:08:59.544Z,100554.47
2022-08-22T06:11:35.800Z,100541.47
2022-08-22T06:14:20.606Z,100545.66
2022-08-22T06:17:01.684Z,100554.84
2022-08-22T06:19:34.632Z,100549.97
2022-08-22T06:22:04.892Z,100544.81
2022-08-22T06:24:37.643Z,100540.13
2022-08-22T06:27:10.404Z,100537.81
2022-08-22T06:29:42.910Z,100534.63
2022-08-22T06:32:17.746Z,100540.00
2022-08-22T06:35:14.563Z,100538.84
2022-08-22T06:37:47.416Z,100532.19
2022-08-22T06:40:18.043Z,100535.81
2022-08-22T06:42:51.629Z,100534.50
2022-08-22T06:45:24.712Z,100532.53
2022-08-22T06:48:00.897Z,100531.34
2022-08-22T06:50:34.511Z,100539.34
2022-08-22T06:53:08.412Z,100542.16
2022-08-22T06:55:40.661Z,100551.00
2022-08-22T06:58:15.692Z,100559.34
2022-08-22T07:00:51.571Z,100555.38
2022-08-22T07:03:37.221Z,100548.69
2022-08-22T07:06:08.087Z,100546.38
2022-08-22T07:08:39.195Z,100537.38
2022-08-22T07:11:16.542Z,100535.00
2022-08-22T07:13:49.988Z,100531.84
2022-08-22T07:16:30.730Z,100516.66
2022-08-22T07:19:01.389Z,100500.16
2022-08-22T07:21:42.944Z,100499.13
2022-08-22T07:24:17.946Z,100497.66
2022-08-22T07:27:06.110Z,100494.50
2022-08-22T07:29:48.101Z,100492.16
2022-08-22T07:32:21.269Z,100491.13
2022-08-22T07:35:03.458Z,100497.63
2022-08-22T07:37:47.676Z,100497.31
2022-08-22T07:40:24.939Z,100494.63
2022-08-22T07:43:01.103Z,100491.97
2022-08-22T07:45:36.561Z,100490.13
2022-08-22T07:48:25.094Z,100487.63
2022-08-22T07:51:08.380Z,100481.63
2022-08-22T07:53:44.326Z,100486.81
2022-08-22T07:56:17.170Z,100481.44
2022-08-22T07:58:49.547Z,100477.78
2022-08-22T08:01:22.272Z,100470.94
2022-08-22T08:03:56.358Z,100478.13
2022-08-22T08:06:27.784Z,100476.13
2022-08-22T08:08:58.657Z,100469.75
2022-08-22T08:11:30.529Z,100468.09
2022-08-22T08:14:03.198Z,100473.72
2022-08-22T08:16:41.521Z,100471.53
2022-08-22T08:19:11.967Z,100476.16
2022-08-22T08:21:44.343Z,100475.00
2022-08-22T08:24:21.362Z,100474.84
2022-08-22T08:27:18.474Z,100472.31
2022-08-22T08:29:56.519Z,100479.88
2022-08-22T08:32:27.363Z,100477.53
2022-08-22T08:34:56.744Z,100477.69
2022-08-22T08:37:32.285Z,100466.69
2022-08-22T08:40:04.949Z,100467.34
2022-08-22T08:43:21.341Z,100467.97
2022-08-22T08:46:30.224Z,100458.09
2022-08-22T08:49:17.791Z,100471.59
2022-08-22T08:52:25.163Z,100473.81
2022-08-22T08:55:19.758Z,100471.97
2022-08-22T08:58:07.109Z,100467.66
2022-08-22T09:00:57.589Z,100475.56
2022-08-22T09:04:15.301Z,100474.31
2022-08-22T09:07:31.339Z,100475.34
2022-08-22T09:10:19.621Z,100471.94
2022-08-22T09:13:11.624Z,100481.63
2022-08-22T09:16:04.774Z,100483.66
2022-08-22T09:19:16.055Z,100481.84
2022-08-22T09:22:20.385Z,100486.53
2022-08-22T09:25:05.983Z,100484.50
2022-08-22T09:27:40.022Z,100495.84
2022-08-22T09:30:14.526Z,100485.88
2022-08-22T09:32:50.112Z,100488.16
2022-08-22T09:35:27.703Z,100497.22
2022-08-22T09:38:11.325Z,100507.84
2022-08-22T09:40:48.172Z,100506.66
2022-08-22T09:43:25.809Z,100508.22
2022-08-22T09:46:08.219Z,100512.75
2022-08-22T09:48:54.029Z,100512.09
2022-08-22T09:51:34.785Z,100506.06
2022-08-22T09:54:23.427Z,100525.00
2022-08-22T09:57:02.289Z,100511.44
2022-08-22T09:59:46.365Z,100512.09
2022-08-22T10:02:28.769Z,100515.88
2022-08-22T10:05:05.302Z,100518.56
2022-08-22T10:07:59.698Z,100518.13
2022-08-22T10:10:43.176Z,100519.97
2022-08-22T10:13:28.295Z,100511.63
2022-08-22T10:16:07.047Z,100520.00
2022-08-22T10:18:53.927Z,100514.03
2022-08-22T10:21:34.652Z,100518.03
2022-08-22T10:24:25.544Z,100517.84
2022-08-22T10:26:58.429Z,100528.63
2022-08-22T10:29:53.555Z,100518.44
2022-08-22T10:32:35.352Z,100525.94
2022-08-22T10:35:18.038Z,100523.66
2022-08-22T10:37:55.468Z,100526.19
2022-08-22T10:40:31.039Z,100542.97
2022-08-22T10:43:07.700Z,100527.94
2022-08-22T10:45:41.780Z,100545.19
2022-08-22T10:48:37.948Z,100548.69
2022-08-22T10:51:20.647Z,100566.13
2022-08-22T10:54:19.948Z,100575.44
2022-08-22T10:56:57.610Z,100587.00
2022-08-22T10:59:42.435Z,100576.31
2022-08-22T11:02:42.292Z,100578.25
2022-08-22T11:05:36.277Z,100573.56
2022-08-22T11:08:18.487Z,100575.28
2022-08-22T11:11:04.059Z,100552.75
2022-08-22T11:13:43.433Z,100545.81
2022-08-22T11:16:31.247Z,100547.47
2022-08-22T11:19:18.260Z,100527.81
2022-08-22T11:22:03.748Z,100519.28
2022-08-22T11:25:35.863Z,100511.50
2022-08-22T11:28:43.949Z,100505.59
2022-08-22T11:31:24.304Z,100497.41
2022-08-22T11:33:57.096Z,100478.75
2022-08-22T11:36:38.495Z,100472.09
2022-08-22T11:39:22.764Z,100475.28
2022-08-22T11:42:09.942Z,100474.75
2022-08-22T11:44:50.488Z,100478.81
2022-08-22T11:47:26.622Z,100471.78
2022-08-22T11:50:01.614Z,100483.41
2022-08-22T11:52:54.570Z,100475.75
2022-08-22T11:55:34.655Z,100473.00
2022-08-22T11:58:29.381Z,100459.16
2022-08-22T12:01:05.411Z,100460.94
2022-08-22T12:03:58.265Z,100451.25
2022-08-22T12:06:56.300Z,100452.34
2022-08-22T12:09:44.580Z,100448.34
2022-08-22T12:12:50.560Z,100437.91
2022-08-22T12:15:25.310Z,100438.50
2022-08-22T12:18:30.396Z,100437.91
2022-08-22T12:21:29.786Z,100437.66
2022-08-22T12:24:20.930Z,100431.34
2022-08-22T12:26:59.774Z,100438.09
2022-08-22T12:29:46.218Z,100435.06
2022-08-22T12:32:43.764Z,100422.81
2022-08-22T12:35:29.715Z,100415.66
2022-08-22T12:38:28.277Z,100425.25
2022-08-22T12:41:28.261Z,100423.97
2022-08-22T12:44:23.401Z,100419.16
2022-08-22T12:47:09.271Z,100419.91
2022-08-22T12:49:53.300Z,100427.34
2022-08-22T12:52:37.755Z,100413.06
2022-08-22T12:55:30.365Z,100417.31
2022-08-22T12:58:08.469Z,100437.84
2022-08-22T13:00:41.556Z,100433.56
2022-08-22T13:03:20.072Z,100432.00
2022-08-22T13:05:56.694Z,100436.06
2022-08-22T13:08:33.437Z,100429.16
2022-08-22T13:11:22.833Z,100423.38
2022-08-22T13:13:57.366Z,100428.09
2022-08-22T13:16:36.443Z,100429.91
2022-08-22T13:19:13.728Z,100432.56
2022-08-22T13:21:48.796Z,100433.56
2022-08-22T13:24:38.473Z,100434.91
2022-08-22T13:27:12.674Z,100432.91
2022-08-22T13:29:48.699Z,100428.88
2022-08-22T13:32:29.730Z,100428.38
2022-08-22T13:35:01.213Z,100430.25
2022-08-22T13:37:37.979Z,100426.53
2022-08-22T13:40:11.446Z,100420.72
2022-08-22T13:42:48.726Z,100432.75
2022-08-22T13:45:25.741Z,100428.81
2022-08-22T13:47:59.219Z,100417.84
2022-08-22T13:50:53.298Z,100423.75
2022-08-22T13:53:33.233Z,100417.56
2022-08-22T13:56:15.539Z,100422.25
2022-08-22T13:58:47.640Z,100417.09
2022-08-22T14:01:38.113Z,100417.47
2022-08-22T14:04:33.339Z,100420.53
2022-08-22T14:07:25.577Z,100415.69
2022-08-22T14:09:58.995Z,100418.44
2022-08-22T14:12:50.529Z,100409.75
2022-08-22T14:15:24.915Z,100414.88
2022-08-22T14:18:03.295Z,100412.91
2022-08-22T14:20:33.929Z,100406.22
2022-08-22T14:23:10.646Z,100407.03
2022-08-22T14:25:43.503Z,100395.84
2022-08-22T14:28:27.352Z,100398.47
2022-08-22T14:31:03.612Z,100397.94
2022-08-22T14:33:39.858Z,100403.63
2022-08-22T14:36:17.085Z,100406.59
2022-08-22T14:38:53.427Z,100405.91
2022-08-22T14:41:52.784Z,100411.47
2022-08-22T14:44:24.605Z,100399.56
2022-08-22T14:46:57.274Z,100395.56
2022-08-22T14:49:32.212Z,100396.38
2022-08-22T14:52:09.121Z,100396.88
2022-08-22T14:54:42.562Z,100401.19
2022-08-22T14:57:19.957Z,100390.91
2022-08-22T14:59:53.884Z,100388.94
2022-08-22T15:02:28.270Z,100393.38
2022-08-22T15:05:01.922Z,100384.88
2022-08-22T15:07:37.527Z,100387.91
2022-08-22T15:10:11.924Z,100396.19
2022-08-22T15:12:48.771Z,100400.53
2022-08-22T15:15:31.154Z,100394.97
2022-08-22T15:18:00.020Z,100387.78
2022-08-22T15:20:34.122Z,100387.63
2022-08-22T15:23:09.892Z,100378.50
2022-08-22T15:25:42.925Z,100382.09
2022-08-22T15:28:20.808Z,100383.94
2022-08-22T15:31:03.434Z,100380.25
2022-08-22T15:33:36.202Z,100377.06
2022-08-22T15:36:15.878Z,100380.88
2022-08-22T15:38:48.063Z,100370.94
2022-08-22T15:41:42.642Z,100377.53
2022-08-22T15:44:33.001Z,100380.38
2022-08-22T15:47:10.878Z,100373.84
2022-08-22T15:49:52.553Z,100378.16
2022-08-22T15:52:29.025Z,100374.88
2022-08-22T15:55:24.676Z,100380.34
2022-08-22T15:58:09.062Z,100384.34
2022-08-22T16:00:45.417Z,100376.66
2022-08-22T16:03:25.991Z,100390.38
2022-08-22T16:06:00.380Z,100379.19
2022-08-22T16:08:33.440Z,100378.75
2022-08-22T16:11:33.083Z,100381.22
2022-08-22T16:14:25.338Z,100385.72
2022-08-22T16:17:02.350Z,100378.72
2022-08-22T16:19:33.142Z,100375.28
2022-08-22T16:22:14.842Z,100379.59
2022-08-22T16:25:07.057Z,100376.75
2022-08-22T16:27:54.461Z,100380.31
2022-08-22T16:30:38.082Z,100375.00
2022-08-22T16:33:12.197Z,100375.81
2022-08-22T16:36:24.535Z,100378.38
2022-08-22T16:38:57.315Z,100373.66
2022-08-22T16:41:37.311Z,100374.69
2022-08-22T16:44:24.241Z,100375.91
2022-08-22T16:47:07.249Z,100369.50
2022-08-22T16:49:40.908Z,100375.34
2022-08-22T16:52:54.863Z,100379.47
2022-08-22T16:56:10.729Z,100373.88
2022-08-22T16:59:22.868Z,100377.19
2022-08-22T17:02:13.396Z,100384.78
2022-08-22T17:04:52.017Z,100388.53
2022-08-22T17:07:34.555Z,100379.22
2022-08-22T17:10:24.106Z,100384.22
2022-08-22T17:13:09.766Z,100383.00
2022-08-22T17:16:01.393Z,100376.34
2022-08-22T17:19:00.304Z,100377.59
2022-08-22T17:21:32.259Z,100375.94
2022-08-22T17:24:31.551Z,100366.41
2022-08-22T17:27:07.733Z,100377.59
2022-08-22T17:29:55.351Z,100370.38
2022-08-22T17:32:35.360Z,100379.69
2022-08-22T17:35:22.141Z,100378.84
2022-08-22T17:38:09.643Z,100376.16
2022-08-22T17:40:47.192Z,100380.91
2022-08-22T17:43:27.829Z,100381.31
2022-08-22T17:46:20.429Z,100373.06
2022-08-22T17:48:56.047Z,100372.22
2022-08-22T17:51:32.671Z,100370.34
2022-08-22T17:54:07.693Z,100378.22
2022-08-22T17:56:44.559Z,100378.88
2022-08-22T17:59:21.050Z,100373.63
2022-08-22T18:01:52.944Z,100380.44
2022-08-22T18:04:54.143Z,100379.19
2022-08-22T18:07:36.563Z,100387.28
2022-08-22T18:10:11.187Z,100378.94
2022-08-22T18:12:46.425Z,100380.59
2022-08-22T18:15:24.697Z,100389.09
2022-08-22T18:17:59.092Z,100386.75
2022-08-22T18:20:36.038Z,100387.59
2022-08-22T18:23:21.702Z,100395.22
2022-08-22T18:26:16.053Z,100402.63
2022-08-22T18:28:50.348Z,100405.88
2022-08-22T18:31:39.766Z,100405.22
2022-08-22T18:34:17.217Z,100413.44
2022-08-22T18:36:55.281Z,100407.38
2022-08-22T18:39:42.553Z,100410.94
2022-08-22T18:42:23.899Z,100424.31
2022-08-22T18:45:16.198Z,100421.38
2022-08-22T18:47:56.789Z,100428.41
2022-08-22T18:50:35.000Z,100428.56
2022-08-22T18:53:33.773Z,100434.47
2022-08-22T18:56:19.995Z,100440.00
2022-08-22T18:59:05.348Z,100441.06
2022-08-22T19:01:47.539Z,100441.06
2022-08-22T19:04:45.829Z,100440.28
2022-08-22T19:07:36.666Z,100438.97
2022-08-22T19:10:20.778Z,100448.88
2022-08-22T19:13:17.387Z,100441.84
2022-08-22T19:15:57.777Z,100438.56
2022-08-22T19:18:37.205Z,100427.81
2022-08-22T19:21:37.824Z,100434.72
2022-08-22T19:24:09.480Z,100439.22
2022-08-22T19:26:44.558Z,100436.34
2022-08-22T19:30:06.080Z,100430.66
2022-08-22T19:33:01.739Z,100434.88
2022-08-22T19:35:47.381Z,100432.81
2022-08-22T19:39:09.225Z,100433.53
2022-08-22T19:41:47.913Z,100438.44
2022-08-22T19:44:45.139Z,100441.09
2022-08-22T19:47:41.149Z,100449.06
2022-08-22T19:50:28.516Z,100443.56
2022-08-22T19:53:24.246Z,100449.25
2022-08-22T19:56:11.007Z,100444.25
2022-08-22T19:58:56.217Z,100447.34
2022-08-22T20:01:39.435Z,100439.66
2022-08-22T20:04:24.965Z,100440.50
2022-08-22T20:07:14.610Z,100433.09
2022-08-22T20:09:54.663Z,100440.69
2022-08-22T20:12:38.166Z,100439.66
2022-08-22T20:15:28.576Z,100439.97
2022-08-22T20:18:46.422Z,100444.44
2022-08-22T20:21:01.253Z,100443.34
2022-08-22T20:23:33.447Z,100451.47
2022-08-22T20:26:02.911Z,100452.94
2022-08-22T20:28:58.222Z,100446.78
2022-08-22T20:31:28.575Z,100439.38
2022-08-22T20:34:04.592Z,100442.00
2022-08-22T20:36:33.966Z,100436.38
2022-08-22T20:39:09.572Z,100435.03
2022-08-22T20:41:50.494Z,100442.56
2022-08-22T20:44:24.637Z,100444.47
2022-08-22T20:46:58.059Z,100432.09
2022-08-22T20:49:30.935Z,100431.69
2022-08-22T20:52:03.320Z,100427.63
2022-08-22T20:54:38.354Z,100431.06
2022-08-22T20:57:20.656Z,100426.53
2022-08-22T20:59:53.934Z,100425.88
2022-08-22T21:02:25.617Z,100423.03
2022-08-22T21:05:03.594Z,100426.72
2022-08-22T21:07:37.730Z,100435.78
2022-08-22T21:10:40.569Z,100429.69
2022-08-22T21:13:15.346Z,100431.47
2022-08-22T21:15:48.644Z,100425.63
2022-08-22T21:18:34.731Z,100427.69
2022-08-22T21:21:17.067Z,100423.72
2022-08-22T21:23:49.244Z,100428.88
2022-08-22T21:26:26.551Z,100428.59
2022-08-22T21:29:00.201Z,100422.16
2022-08-22T21:31:32.100Z,100432.59
2022-08-22T21:34:01.960Z,100430.38
2022-08-22T21:36:34.325Z,100426.28
2022-08-22T21:39:06.593Z,100425.28
2022-08-22T21:41:41.358Z,100430.25
2022-08-22T21:44:36.444Z,100432.03
2022-08-22T21:47:31.263Z,100432.78
2022-08-22T21:50:05.314Z,100432.94
2022-08-22T21:52:35.996Z,100432.19
2022-08-22T21:55:27.563Z,100426.00
2022-08-22T21:58:10.485Z,100429.53
2022-08-22T22:00:53.120Z,100437.75
2022-08-22T22:03:23.305Z,100442.09
2022-08-22T22:05:55.030Z,100437.41
2022-08-22T22:08:59.837Z,100429.16
2022-08-22T22:11:28.591Z,100429.34
2022-08-22T22:13:58.623Z,100434.06
2022-08-22T22:16:32.741Z,100450.97
2022-08-22T22:19:02.229Z,100446.56
2022-08-22T22:21:31.444Z,100457.44
2022-08-22T22:24:00.232Z,100462.63
2022-08-22T22:26:28.962Z,100449.69
2022-08-22T22:29:00.525Z,100455.16
2022-08-22T22:31:28.964Z,100444.78
2022-08-22T22:34:02.639Z,100452.53
2022-08-22T22:36:31.823Z,100449.13
2022-08-22T22:39:06.592Z,100456.59
2022-08-22T22:41:35.292Z,100455.78
2022-08-22T22:44:07.758Z,100453.09
2022-08-22T22:46:36.926Z,100451.44
2022-08-22T22:49:06.316Z,100452.66
2022-08-22T22:51:34.848Z,100441.47
2022-08-22T22:54:03.793Z,100447.09
2022-08-22T22:56:33.381Z,100452.75
2022-08-22T22:59:13.656Z,100450.63
2022-08-22T23:02:07.147Z,100445.72
2022-08-22T23:04:38.207Z,100440.97
2022-08-22T23:07:07.861Z,100444.22
2022-08-22T23:09:38.543Z,100441.75
2022-08-22T23:12:13.643Z,100440.91
2022-08-22T23:14:42.148Z,100448.97
2022-08-22T23:17:12.623Z,100448.56
2022-08-22T23:19:41.456Z,100442.75
2022-08-22T23:22:12.644Z,100447.31
2022-08-22T23:24:43.078Z,100442.56
2022-08-22T23:27:14.405Z,100443.03
2022-08-22T23:29:43.892Z,100437.56
2022-08-22T23:32:15.718Z,100440.91
2022-08-22T23:34:49.078Z,100442.22
2022-08-22T23:37:20.671Z,100439.97
2022-08-22T23:39:49.750Z,100434.78
2022-08-22T23:42:19.643Z,100435.53
2022-08-22T23:44:48.289Z,100435.06
2022-08-22T23:47:18.592Z,100434.31
2022-08-22T23:49:47.191Z,100434.78
2022-08-22T23:52:15.836Z,100426.38
2022-08-22T23:54:44.712Z,100423.25
2022-08-22T23:57:13.702Z,100426.75
2022-08-22T23:59:48.576Z,100424.25
